Tiempo atmosférico en la estación meteorológica de Roncesvalles, Navarra (940 m.)



Fecha
DESCASC
Temp. máxima en grados centígrados (hora)
DESCASC
Temp. mínima en grados centígrados (hora)
DESCASC
Temp. media en grados centígrados
DESCASC
Racha de viento máxima en m/sg (hora)
DESCASC
Velocidad máxima media en intervalos de 10 minutos(hora)
DESCASC
Precipitaciones diarias en mm
DESCASC
Precipitaciones de 00:00 a 06:00 en mm
DESCASC
Precipitaciones de 06:00 a 12:00 en mm
DESCASC
Precipitaciones de 12:00 a 18:00 en mm
DESCASC
Precipitaciones de 18:00 a 24:00 en mm
DESCASC
22-01-2020 9.2 (14:20) -0.2 (08:20) 4.5 11.11 (02:20) 4.72 (16:00) 2.4 0 0 1.8 0.6
21-01-2020 1.5 (22:00) -4 (05:00) -1.3 12.22 (21:30) 6.67 (10:30) 0 0 0 0 0
20-01-2020 -1.9 (23:30) -4.9 (08:50) -3.4 12.78 (03:20) 6.39 (21:50) 0 0 0 0 0
19-01-2020 2.1 (00:00) -3 (-00:0) -0.5 14.72 (21:50) 4.72 (06:50) 13 11.6 1.4 0 0
18-01-2020 7.7 (14:10) -1.2 (-00:0) 3.2 11.94 (14:10) 6.67 (14:30) 16 0.2 0 0 15.8
17-01-2020 8.4 (00:50) 0.8 (00:00) 4.6 11.39 (03:00) 6.39 (02:00) 8.4 0 3.4 3.2 1.8
16-01-2020 10.8 (15:20) 4.2 (00:00) 7.5 12.22 (12:30) 7.22 (12:30) 0 0 0 0 0
15-01-2020 8.6 (15:30) 3.3 (00:00) 6 12.22 (04:50) 6.67 (04:50) 0 0 0 0 0
14-01-2020 8.1 (14:00) -0.2 (00:00) 4 10.83 (17:00) 6.67 (17:00) 0 0 0 0 0
13-01-2020 8.6 (15:40) -3.1 (-00:0) 2.8 7.5 (22:20) 3.61 (15:50) 0 0 0 0 0
12-01-2020 7.4 (14:00) -2.6 (-00:0) 2.4 10 (10:10) 5.56 (10:30) 0 0 0 0 0
11-01-2020 8.1 (15:10) -1.8 (-00:0) 3.2 11.11 (06:50) 5.83 (12:40) 0 0 0 0 0
10-01-2020 4.5 (15:20) 1 (00:00) 2.8 10.83 (19:20) 3.61 (20:20) 22.4 4.2 10.4 6.4 1.4
09-01-2020 10.8 (13:10) 2.7 (00:00) 6.8 10.56 (14:30) 6.11 (14:40) 2 0 0 0 2
08-01-2020 14.2 (13:50) 4.1 (00:00) 9.1 10.28 (10:40) 5.83 (04:20) 0 0 0 0 0
07-01-2020 13.4 (13:20) 0.9 (00:00) 7.1 9.44 (04:50) 5.83 (18:50) 0 0 0 0 0
06-01-2020 11.1 (14:50) -0.2 (00:00) 5.5 10.28 (20:10) 5 (20:30) 0 0 0 0 0
05-01-2020 11.8 (15:20) 1.4 (00:00) 6.6 13.06 (02:20) 6.67 (01:40) 0 0 0 0 0
04-01-2020 4.9 (00:00) 2.6 (00:00) 3.8 11.39 (23:50) 6.67 (23:59) 6.8 2.8 3.4 0.6 0
03-01-2020 7.6 (12:40) -1 (-00:0) 3.3 7.5 (14:20) 3.89 (14:20) 0.2 0 0 0.2 0
02-01-2020 12.3 (14:20) -0.4 (00:00) 6 3.06 (13:00) 1.67 (14:50) 0 0 0 0 0
01-01-2020 12.5 (15:10) -0.9 (-00:0) 5.8 3.89 (13:20) 1.94 (14:40) 0 0 0 0 0
31-12-2019 12.1 (14:00) -0.7 (-00:0) 5.7 8.33 (15:00) 5.28 (15:00) 0 0 0 0 0
30-12-2019 -- (--) -- (--) -- -- (--) -- (--) -- 0 0 0 --
29-12-2019 12.5 (21:30) 0 (00:00) 6.3 6.11 (21:10) 3.33 (20:50) 0 0 0 0 0
28-12-2019 14.6 (13:50) 2.8 (00:00) 8.7 10 (15:20) 6.11 (15:20) 0 0 0 0 0
27-12-2019 14.2 (13:00) 0.2 (00:00) 7.2 9.44 (02:20) 5 (02:20) 0 0 0 0 0
26-12-2019 9.6 (05:30) 1.1 (00:00) 5.4 9.72 (07:00) 4.72 (10:10) 2.2 0 1.8 0.4 0
25-12-2019 17.9 (15:30) 4 (00:00) 10.9 2.78 (15:00) 1.39 (13:20) 0 0 0 0 0
24-12-2019 15.1 (14:20) 3 (00:00) 9.1 6.67 (15:00) 3.33 (15:10) 0 0 0 0 0

Gráficas

Temp. máximas Temp. mínimas Temp. medias Precipitaciones Rachas de viento máximas Velocidades máximas media en intervalos de 10 minutos

Datos horarios

Fecha y hora oficial Temperatura (ºC) Velocidad del viento (km/h) Dirección del viento Racha (km/h) Dirección de racha Precipitación (mm) Presión (hPa) Tendencia (hPa) Humedad (%)
2020-01-22 23:00:00 1.8 0 Calma 3 Nordeste 0.4 -- -- 100
2020-01-22 22:00:00 2 3 Nordeste 4 Nordeste 0 -- -- 100
2020-01-22 21:00:00 1.9 0 Calma 5 Sudeste 0 -- -- 100
2020-01-22 20:00:00 2.4 2 Norte 19 Norte 0 -- -- 100
2020-01-22 19:00:00 3 3 Norte 9 Norte 0 -- -- 97
2020-01-22 18:00:00 4.3 5 Norte 22 Nordeste 1.4 -- -- 88
2020-01-22 17:00:00 3.7 7 Este 30 Norte 0.4 -- -- 97
2020-01-22 16:00:00 4 17 Norte 30 Norte 0 -- -- 97
2020-01-22 15:00:00 6.3 10 Norte 16 Nordeste 0 -- -- 81
2020-01-22 14:00:00 8.2 7 Sur 14 Sur 0 -- -- 72
2020-01-22 13:00:00 8.2 4 Sur 6 Sur 0 -- -- 74
2020-01-22 12:00:00 4.8 0 Calma 5 Este 0 -- -- 90
2020-01-22 11:00:00 3.4 3 Sudeste 5 Este 0 -- -- 94
2020-01-22 10:00:00 0.7 0 Calma 4 Sur 0 -- -- 100
2020-01-22 09:00:00 -0.2 0 Calma 2 Norte 0 -- -- 100
2020-01-22 08:00:00 0.1 0 Calma 3 Nordeste 0 -- -- 100
2020-01-22 07:00:00 0.2 0 Calma 10 Norte 0 -- -- 100
2020-01-22 06:00:00 0.2 2 Noroeste 20 Norte 0 -- -- 100
2020-01-22 05:00:00 0.1 2 Noroeste 4 Nordeste 0 -- -- 100
2020-01-22 04:00:00 0 2 Oeste 6 Norte 0 -- -- 100
2020-01-22 03:00:00 1 2 Noroeste 40 Norte 0 -- -- 99
2020-01-22 02:00:00 1 8 Norte 33 Norte 0 -- -- 99
2020-01-22 01:00:00 0.7 9 Norte 32 Nordeste 0 -- -- 99
2020-01-22 00:00:00 0.8 9 Norte 34 Nordeste 0 -- -- 100
2020-01-21 23:00:00 0.8 16 Norte 34 Norte 0 -- -- 100
2020-01-21 22:00:00 1.5 9 Noroeste 44 Norte 0 -- -- 95
2020-01-21 21:00:00 0.6 15 Norte 33 Nordeste 0 -- -- 100
2020-01-21 20:00:00 0.6 18 Norte 43 Nordeste 0 -- -- 99
2020-01-21 19:00:00 0.1 15 Nordeste 37 Nordeste 0 -- -- 99
2020-01-21 18:00:00 -0.5 14 Norte 36 Norte 0 -- -- 100
2020-01-21 17:00:00 -1 13 Norte 33 Norte 0 -- -- 100
2020-01-21 16:00:00 -1.5 11 Norte 36 Norte 0 -- -- 100
2020-01-21 15:00:00 -1.9 12 Norte 33 Nordeste 0 -- -- 100
2020-01-21 14:00:00 -2.4 16 Norte 36 Norte 0 -- -- 100
2020-01-21 13:00:00 -2.4 19 Norte 37 Norte 0 -- -- 100
2020-01-21 12:00:00 -2.3 18 Norte 39 Norte 0 -- -- 100
2020-01-21 11:00:00 -2.6 18 Norte 43 Norte 0 -- -- 100
2020-01-21 10:00:00 -3 23 Norte 40 Norte 0 -- -- 100
2020-01-21 09:00:00 -3.3 6 Noroeste 24 Nordeste 0 -- -- 100
2020-01-21 08:00:00 -3.5 6 Noroeste 33 Norte 0 -- -- 100
2020-01-21 07:00:00 -3.8 15 Norte 39 Nordeste 0 -- -- 100
2020-01-21 06:00:00 -3.7 17 Norte 43 Norte 0 -- -- 100
2020-01-21 05:00:00 -4 21 Norte 40 Norte 0 -- -- 100
2020-01-21 04:00:00 -3.3 18 Norte 42 Norte 0 -- -- 98
2020-01-21 03:00:00 -3.6 23 Norte 43 Norte 0 -- -- 100
2020-01-21 02:00:00 -2.8 17 Nordeste 39 Norte 0 -- -- 97
2020-01-21 01:00:00 -3.3 16 Noroeste 39 Norte 0 -- -- 97
2020-01-21 00:00:00 -2.7 15 Norte 40 Nordeste 0 -- -- 93
2020-01-20 23:00:00 -2.5 17 Norte 45 Norte 0 -- -- 92
2020-01-20 22:00:00 -2.9 19 Nordeste 40 Norte 0 -- -- 93
2020-01-20 21:00:00 -2.8 17 Norte 39 Nordeste 0 -- -- 93
2020-01-20 20:00:00 -2.6 14 Norte 36 Norte 0 -- -- 94
2020-01-20 19:00:00 -2.4 14 Noroeste 30 Norte 0 -- -- 93
2020-01-20 18:00:00 -2.6 10 Noroeste 25 Norte 0 -- -- 94
2020-01-20 17:00:00 -2.7 16 Noroeste 37 Norte 0 -- -- 94
2020-01-20 16:00:00 -2.5 13 Norte 39 Este 0 -- -- 92
2020-01-20 15:00:00 -2.4 13 Norte 37 Norte 0 -- -- 94
2020-01-20 14:00:00 -3.4 18 Norte 44 Norte 0 -- -- 95
2020-01-20 13:00:00 -3.2 21 Norte 43 Norte 0 -- -- 90
2020-01-20 12:00:00 -4 9 Norte 31 Norte 0 -- -- 96
2020-01-20 11:00:00 -4.4 7 Noroeste 23 Noroeste 0 -- -- 96
2020-01-20 10:00:00 -4.8 7 Oeste 28 Noroeste 0 -- -- 99
2020-01-20 09:00:00 -4.9 6 Sudoeste 37 Nordeste 0 -- -- 99
2020-01-20 08:00:00 -4.7 8 Este 36 Este 0 -- -- 98
2020-01-20 07:00:00 -4.8 13 Este 37 Noroeste 0 -- -- 99
2020-01-20 06:00:00 -4.6 12 Este 40 Este 0 -- -- 99
2020-01-20 05:00:00 -4.6 10 Nordeste 39 Nordeste 0 -- -- 99
2020-01-20 04:00:00 -4.5 10 Nordeste 46 Nordeste 0 -- -- 99
2020-01-20 03:00:00 -4.2 14 Nordeste 38 Nordeste 0 -- -- 98
2020-01-20 02:00:00 -3.8 12 Nordeste 44 Este 0 -- -- 97
2020-01-20 01:00:00 -3.4 11 Nordeste 40 Este 0 -- -- 95
2020-01-20 00:00:00 -3 11 Norte 41 Este 0 -- -- 93
2020-01-19 23:00:00 -2.7 14 Nordeste 49 Este 0 -- -- 91
2020-01-19 22:00:00 -2.3 13 Este 53 Este 0 -- -- 88
2020-01-19 21:00:00 -1.8 12 Nordeste 41 Nordeste 0 -- -- 86
2020-01-19 20:00:00 -1.2 14 Este 42 Este 0 -- -- 83
2020-01-19 19:00:00 -0.8 12 Este 35 Nordeste 0 -- -- 83
2020-01-19 18:00:00 -0.6 13 Este 41 Nordeste 0 -- -- 84
2020-01-19 17:00:00 -0.6 16 Este 41 Este 0 -- -- 87
2020-01-19 16:00:00 -0.7 13 Este 43 Este 0 -- -- 93
2020-01-19 15:00:00 -1.2 11 Sudeste 44 Este 0 -- -- 100
2020-01-19 14:00:00 -1.5 11 Sur 37 Norte 0 -- -- 100
2020-01-19 13:00:00 -1.5 8 Sudoeste 31 Este 0 -- -- 100
2020-01-19 12:00:00 -1.6 14 Noroeste 35 Noroeste 0 -- -- 100
2020-01-19 11:00:00 -1.4 12 Noroeste 38 Norte 0 -- -- 100
2020-01-19 10:00:00 -0.9 12 Norte 32 Norte 0 -- -- 100
2020-01-19 09:00:00 -0.1 10 Este 32 Nordeste 0 -- -- 100
2020-01-19 08:00:00 0.2 8 Nordeste 37 Noroeste 0 -- -- 100
2020-01-19 07:00:00 0.5 14 Nordeste 45 Este 1.4 -- -- 100
2020-01-19 06:00:00 0.6 9 Norte 33 Noroeste 2.4 -- -- 100
2020-01-19 05:00:00 1.5 11 Este 37 Nordeste 1.8 -- -- 100
2020-01-19 04:00:00 1.7 6 Oeste 27 Norte 2.2 -- -- 100
2020-01-19 03:00:00 1.7 14 Noroeste 24 Noroeste 1.8 -- -- 98
2020-01-19 02:00:00 1.6 8 Norte 21 Norte 1.8 -- -- 98
2020-01-19 01:00:00 1.5 4 Norte 12 Norte 1.6 -- -- 99
2020-01-19 00:00:00 2.1 3 Norte 17 Nordeste 0.6 -- -- 96
2020-01-18 23:00:00 2.2 7 Nordeste 19 Nordeste 2.2 -- -- 96
2020-01-18 22:00:00 1.5 3 Nordeste 14 Noroeste 6.2 -- -- 97
2020-01-18 21:00:00 3.4 4 Norte 9 Sudeste 2.8 -- -- 97
2020-01-18 20:00:00 3.7 3 Este 11 Sudeste 2.6 -- -- 94
2020-01-18 19:00:00 4.2 2 Sur 17 Sudeste 1.4 -- -- 93
2020-01-18 18:00:00 5.3 9 Sur 23 Sur 0 -- -- 80
2020-01-18 17:00:00 6 12 Sudoeste 29 Sur 0 -- -- 76
2020-01-18 16:00:00 6.5 14 Sur 30 Sur 0 -- -- 73
2020-01-18 15:00:00 6.5 16 Sur 43 Sur 0 -- -- 70
2020-01-18 14:00:00 7.4 19 Sur 40 Sur 0 -- -- 65
2020-01-18 13:00:00 5.7 14 Sur 32 Sudoeste 0 -- -- 71
2020-01-18 12:00:00 4.8 12 Sur 28 Sur 0 -- -- 72
2020-01-18 11:00:00 3.6 9 Sur 19 Sur 0 -- -- 77
2020-01-18 10:00:00 1.9 4 Este 10 Este 0 -- -- 84
2020-01-18 09:00:00 1.4 3 Este 8 Este 0 -- -- 88
2020-01-18 08:00:00 1 2 Nordeste 7 Este 0 -- -- 91
2020-01-18 07:00:00 0.1 0 Calma 4 Sudoeste 0 -- -- 100
2020-01-18 06:00:00 0.2 2 Norte 5 Nordeste 0 -- -- 100
2020-01-18 05:00:00 -0.1 3 Norte 5 Oeste 0 -- -- 100
2020-01-18 04:00:00 0 3 Norte 5 Norte 0 -- -- 100
2020-01-18 03:00:00 -1.2 0 Calma 3 Norte 0 -- -- 100
2020-01-18 02:00:00 -0.8 0 Calma 4 Norte 0.2 -- -- 100
2020-01-18 01:00:00 -0.4 3 Noroeste 7 Sur 0 -- -- 100
2020-01-18 00:00:00 1.5 4 Norte 17 Nordeste 0 -- -- 94
2020-01-17 23:00:00 1.6 7 Norte 13 Norte 0 -- -- 97
2020-01-17 22:00:00 1.7 3 Noroeste 9 Noroeste 0 -- -- 98
2020-01-17 21:00:00 1.3 2 Norte 20 Nordeste 0.6 -- -- 99
2020-01-17 20:00:00 1.5 2 Sur 15 Norte 0 -- -- 99
2020-01-17 19:00:00 2.7 6 Norte 23 Nordeste 1.2 -- -- 90
2020-01-17 18:00:00 2.9 4 Nordeste 19 Nordeste 0.8 -- -- 92
2020-01-17 17:00:00 3.6 5 Nordeste 29 Norte 0 -- -- 88
2020-01-17 16:00:00 5.5 4 Sudoeste 15 Sur 0 -- -- 84
2020-01-17 15:00:00 3.8 4 Este 13 Sudeste 2 -- -- 91
2020-01-17 14:00:00 4.4 3 Sudoeste 13 Este 0 -- -- 90
2020-01-17 13:00:00 4 4 Sudeste 19 Oeste 0.4 -- -- 90
2020-01-17 12:00:00 3.6 3 Nordeste 25 Nordeste 0.4 -- -- 93
2020-01-17 11:00:00 3.3 11 Norte 26 Nordeste 1.4 -- -- 94
2020-01-17 10:00:00 4.3 8 Norte 24 Nordeste 0.2 -- -- 96
2020-01-17 09:00:00 4.5 6 Sudoeste 31 Sur 1.4 -- -- 97
2020-01-17 08:00:00 5.3 4 Sudoeste 17 Sudoeste 0 -- -- 89
2020-01-17 07:00:00 5 4 Sudoeste 13 Sur 0 -- -- 90
2020-01-17 06:00:00 6.1 6 Sur 19 Sur 0 -- -- 84
2020-01-17 05:00:00 6.5 9 Sur 30 Sur 0 -- -- 82
2020-01-17 04:00:00 6.9 19 Sur 39 Sur 0 -- -- 80
2020-01-17 03:00:00 7.5 21 Sudoeste 41 Sudoeste 0 -- -- 77
2020-01-17 02:00:00 7.8 23 Sur 40 Sudoeste 0 -- -- 75
2020-01-17 01:00:00 8.3 17 Sur 35 Sur 0 -- -- 71
2020-01-17 00:00:00 8 14 Sur 39 Sur 0 -- -- 73
2020-01-16 23:00:00 9 24 Sur 44 Sur 0 -- -- 69
2020-01-16 22:00:00 8.9 26 Sur 43 Sur 0 -- -- 72
2020-01-16 21:00:00 9 22 Sur 40 Sudoeste 0 -- -- 76
2020-01-16 20:00:00 9.1 17 Sur 44 Sudoeste 0 -- -- 77
2020-01-16 19:00:00 9.2 21 Sur 44 Sur 0 -- -- 77
2020-01-16 18:00:00 9.4 18 Sur 39 Sur 0 -- -- 76
2020-01-16 17:00:00 9.7 16 Sur 37 Sudoeste 0 -- -- 76
2020-01-16 16:00:00 10.3 24 Sur 44 Sur 0 -- -- 73
2020-01-16 15:00:00 10.6 19 Sur 43 Sur 0 -- -- 72
2020-01-16 14:00:00 10.2 19 Sur 40 Sur 0 -- -- 76
2020-01-16 13:00:00 9.1 26 Sur 44 Sudoeste 0 -- -- 78
2020-01-16 12:00:00 8.9 22 Sur 43 Sudeste 0 -- -- 79
2020-01-16 11:00:00 8.2 25 Sur 40 Sur 0 -- -- 78
2020-01-16 10:00:00 6.7 13 Sur 34 Sur 0 -- -- 75
2020-01-16 09:00:00 6.6 11 Sur 22 Sudoeste 0 -- -- 74
2020-01-16 08:00:00 6.4 8 Sur 27 Sudeste 0 -- -- 78
2020-01-16 07:00:00 5.4 8 Sudoeste 22 Sudoeste 0 -- -- 85
2020-01-16 06:00:00 4.9 5 Sur 17 Sur 0 -- -- 83
2020-01-16 05:00:00 4.7 2 Noroeste 14 Sudeste 0 -- -- 83
2020-01-16 04:00:00 4.7 5 Este 12 Sur 0 -- -- 83
2020-01-16 03:00:00 4.6 5 Sudeste 12 Este 0 -- -- 84
2020-01-16 02:00:00 4.6 3 Este 10 Sur 0 -- -- 83
2020-01-16 01:00:00 5 3 Sudoeste 13 Sudeste 0 -- -- 82
2020-01-16 00:00:00 4.8 4 Sur 12 Este 0 -- -- 85
2020-01-15 23:00:00 4.4 2 Oeste 10 Oeste 0 -- -- 87
2020-01-15 22:00:00 4.2 0 Calma 8 Nordeste 0 -- -- 87
2020-01-15 21:00:00 5.1 0 Calma 12 Sudeste 0 -- -- 81
2020-01-15 20:00:00 5.4 3 Nordeste 10 Este 0 -- -- 79
2020-01-15 19:00:00 6.3 0 Calma 12 Sudeste 0 -- -- 76
2020-01-15 18:00:00 7 8 Sur 24 Sur 0 -- -- 74
2020-01-15 17:00:00 7.1 12 Sur 25 Sur 0 -- -- 72
2020-01-15 16:00:00 8 13 Sur 26 Sur 0 -- -- 69
2020-01-15 15:00:00 7.6 14 Sur 28 Sur 0 -- -- 68
2020-01-15 14:00:00 7.7 17 Sur 33 Sur 0 -- -- 68
2020-01-15 13:00:00 8 9 Sur 26 Sur 0 -- -- 66
2020-01-15 12:00:00 6.8 14 Sur 27 Sudoeste 0 -- -- 72
2020-01-15 11:00:00 5.7 14 Sur 32 Sur 0 -- -- 74
2020-01-15 10:00:00 5.1 21 Sur 35 Sur 0 -- -- 75
2020-01-15 09:00:00 4.2 10 Sur 22 Sudoeste 0 -- -- 74
2020-01-15 08:00:00 3.6 10 Sudoeste 26 Este 0 -- -- 77
2020-01-15 07:00:00 3.3 8 Sudeste 22 Sudeste 0 -- -- 78
2020-01-15 06:00:00 3.9 3 Oeste 39 Sudoeste 0 -- -- 75
2020-01-15 05:00:00 5.6 21 Sur 44 Sur 0 -- -- 70
2020-01-15 04:00:00 4.6 14 Sur 30 Sur 0 -- -- 70
2020-01-15 03:00:00 3.7 9 Sur 24 Sudeste 0 -- -- 71
2020-01-15 02:00:00 4.1 10 Sur 35 Sur 0 -- -- 69
2020-01-15 01:00:00 4.5 19 Sur 37 Sur 0 -- -- 69
2020-01-15 00:00:00 4.5 15 Sur 36 Sur 0 -- -- 64
2020-01-14 23:00:00 4.1 16 Sur 39 Sur 0 -- -- 64
2020-01-14 22:00:00 4 15 Sur 37 Sudoeste 0 -- -- 66
2020-01-14 21:00:00 3.9 15 Sudoeste 32 Sudoeste 0 -- -- 72
2020-01-14 20:00:00 4.5 13 Sudoeste 32 Sudoeste 0 -- -- 66
2020-01-14 19:00:00 4.4 10 Sudoeste 36 Sur 0 -- -- 63
2020-01-14 18:00:00 5.5 13 Sudoeste 35 Sur 0 -- -- 57
2020-01-14 17:00:00 6.4 24 Sur 39 Sur 0 -- -- 53
2020-01-14 16:00:00 7.8 15 Sur 36 Sur 0 -- -- 50
2020-01-14 15:00:00 7.8 21 Sur 35 Sur 0 -- -- 54
2020-01-14 14:00:00 8.1 18 Sur 33 Sur 0 -- -- 52
2020-01-14 13:00:00 7.3 19 Sur 28 Sur 0 -- -- 55
2020-01-14 12:00:00 5.6 12 Sudoeste 18 Sur 0 -- -- 60
2020-01-14 11:00:00 3.3 4 Sur 12 Sudoeste 0 -- -- 72
2020-01-14 10:00:00 2.8 7 Sudoeste 12 Sudoeste 0 -- -- 69
2020-01-14 09:00:00 -0.2 2 Oeste 5 Sudoeste 0 -- -- 76
2020-01-14 08:00:00 0.2 0 Calma 5 Oeste 0 -- -- 77
2020-01-14 07:00:00 0.6 0 Calma 5 Oeste 0 -- -- 76
2020-01-14 06:00:00 0.9 0 Calma 5 Oeste 0 -- -- 75
2020-01-14 05:00:00 1.2 2 Sudoeste 13 Oeste 0 -- -- 74
2020-01-14 04:00:00 2.8 0 Calma 15 Sur 0 -- -- 65
2020-01-14 03:00:00 3.7 9 Sur 23 Sudeste 0 -- -- 58
2020-01-14 02:00:00 2.3 3 Sur 11 Sudoeste 0 -- -- 65
2020-01-14 01:00:00 1.3 4 Sudoeste 13 Oeste 0 -- -- 72
2020-01-14 00:00:00 3.3 5 Sudeste 12 Sudeste 0 -- -- 58
2020-01-13 23:00:00 4.3 4 Este 27 Sur 0 -- -- 55
2020-01-13 22:00:00 3.7 4 Sudoeste 14 Sudeste 0 -- -- 56
2020-01-13 21:00:00 4.7 3 Sur 13 Sur 0 -- -- 54
2020-01-13 20:00:00 4.6 3 Sur 15 Sur 0 -- -- 56
2020-01-13 19:00:00 3.9 3 Oeste 12 Sudoeste 0 -- -- 63
2020-01-13 18:00:00 5.3 4 Sudoeste 17 Sur 0 -- -- 57
2020-01-13 17:00:00 6.6 10 Sudoeste 22 Sur 0 -- -- 55
2020-01-13 16:00:00 8.6 9 Sur 22 Sur 0 -- -- 50
2020-01-13 15:00:00 7.1 5 Sudoeste 15 Sudoeste 0 -- -- 59
2020-01-13 14:00:00 6.9 4 Sudoeste 12 Oeste 0 -- -- 62
2020-01-13 13:00:00 6.2 5 Sudoeste 10 Sur 0 -- -- 64
2020-01-13 12:00:00 4.7 3 Sudoeste 9 Sudoeste 0 -- -- 75
2020-01-13 11:00:00 3.3 0 Calma 4 Oeste 0 -- -- 72
2020-01-13 10:00:00 -0.1 0 Calma 4 Noroeste 0 -- -- 84
2020-01-13 09:00:00 -1.6 0 Calma 4 Nordeste 0 -- -- 85
2020-01-13 08:00:00 -1.8 0 Calma 4 Sudeste 0 -- -- 85
2020-01-13 07:00:00 -2.1 0 Calma 2 Sudeste 0 -- -- 86
2020-01-13 06:00:00 -2.5 0 Calma 7 Norte 0 -- -- 89
2020-01-13 05:00:00 -2.6 0 Calma 2 Noroeste 0 -- -- 92
2020-01-13 04:00:00 -3.1 0 Calma 3 Sudoeste 0 -- -- 95
2020-01-13 03:00:00 -2.3 0 Calma 2 Noroeste 0 -- -- 95
2020-01-13 02:00:00 -1.7 0 Calma 2 Sudoeste 0 -- -- 94
2020-01-13 01:00:00 -1.3 0 Calma 4 Norte 0 -- -- 86
2020-01-13 00:00:00 -1 0 Calma 7 Norte 0 -- -- 84
2020-01-12 23:00:00 -0.5 0 Calma 3 Nordeste 0 -- -- 81
2020-01-12 22:00:00 -0.6 0 Calma 3 Norte 0 -- -- 81
2020-01-12 21:00:00 -0.4 0 Calma 4 Nordeste 0 -- -- 94
2020-01-12 20:00:00 0.1 0 Calma 4 Nordeste 0 -- -- 92
2020-01-12 19:00:00 1.4 2 Norte 19 Norte 0 -- -- 97
2020-01-12 18:00:00 3.3 4 Nordeste 17 Norte 0 -- -- 93
2020-01-12 17:00:00 4.2 9 Norte 30 Norte 0 -- -- 82
2020-01-12 16:00:00 5.8 17 Norte 33 Nordeste 0 -- -- 75
2020-01-12 15:00:00 5.8 14 Norte 31 Nordeste 0 -- -- 71
2020-01-12 14:00:00 7.4 8 Norte 33 Norte 0 -- -- 58
2020-01-12 13:00:00 6.6 18 Norte 29 Norte 0 -- -- 51
2020-01-12 12:00:00 6.7 8 Noroeste 30 Noroeste 0 -- -- 47
2020-01-12 11:00:00 5.8 15 Norte 36 Norte 0 -- -- 47
2020-01-12 10:00:00 5.3 10 Norte 26 Noroeste 0 -- -- 39
2020-01-12 09:00:00 3.7 10 Norte 23 Norte 0 -- -- 42
2020-01-12 08:00:00 -0.3 0 Calma 13 Norte 0 -- -- 72
2020-01-12 07:00:00 -1 3 Nordeste 6 Sudoeste 0 -- -- 77
2020-01-12 06:00:00 0.1 2 Noroeste 10 Norte 0 -- -- 63
2020-01-12 05:00:00 1.2 3 Norte 15 Norte 0 -- -- 59
2020-01-12 04:00:00 0.6 4 Noroeste 18 Nordeste 0 -- -- 71
2020-01-12 03:00:00 -1.3 2 Oeste 11 Norte 0 -- -- 79
2020-01-12 02:00:00 -1.3 3 Este 7 Este 0 -- -- 78
2020-01-12 01:00:00 -2.4 0 Calma 4 Noroeste 0 -- -- 88
2020-01-12 00:00:00 -1.5 0 Calma 3 Norte 0 -- -- 86
2020-01-11 23:00:00 -1.1 0 Calma 3 Noroeste 0 -- -- 88
2020-01-11 22:00:00 -0.9 2 Noroeste 5 Nordeste 0 -- -- 96
2020-01-11 21:00:00 -0.5 0 Calma 3 Nordeste 0 -- -- 98
2020-01-11 20:00:00 -0.1 0 Calma 4 Norte 0 -- -- 96
2020-01-11 19:00:00 0.5 0 Calma 3 Oeste 0 -- -- 94
2020-01-11 18:00:00 2.1 0 Calma 2 Sudeste 0 -- -- 88
2020-01-11 17:00:00 5 0 Calma 5 Este 0 -- -- 77
2020-01-11 16:00:00 7.8 2 Sudeste 13 Norte 0 -- -- 63
2020-01-11 15:00:00 7.3 5 Nordeste 28 Norte 0 -- -- 59
2020-01-11 14:00:00 5 15 Nordeste 33 Norte 0 -- -- 71
2020-01-11 13:00:00 4.2 20 Norte 33 Nordeste 0 -- -- 73
2020-01-11 12:00:00 4.2 18 Norte 35 Norte 0 -- -- 64
2020-01-11 11:00:00 2.8 17 Norte 34 Norte 0 -- -- 78
2020-01-11 10:00:00 2.6 7 Sur 33 Nordeste 0 -- -- 80
2020-01-11 09:00:00 1.3 14 Este 37 Este 0 -- -- 88
2020-01-11 08:00:00 1.3 13 Este 35 Este 0 -- -- 87
2020-01-11 07:00:00 1.5 17 Nordeste 40 Este 0 -- -- 87
2020-01-11 06:00:00 1.7 19 Este 36 Nordeste 0 -- -- 89
2020-01-11 05:00:00 1.4 4 Norte 19 Norte 0 -- -- 90
2020-01-11 04:00:00 1.5 3 Noroeste 15 Noroeste 0 -- -- 93
2020-01-11 03:00:00 0.9 3 Oeste 20 Norte 0 -- -- 99
2020-01-11 02:00:00 0.5 2 Oeste 17 Noroeste 0 -- -- 97
2020-01-11 01:00:00 1.7 4 Sudoeste 16 Este 0 -- -- 96
2020-01-11 00:00:00 2.1 5 Sudeste 18 Sudeste 0 -- -- 96
2020-01-10 23:00:00 2.3 5 Sudoeste 19 Noroeste 0 -- -- 98
2020-01-10 22:00:00 2.5 5 Sudoeste 23 Este 0 -- -- 97
2020-01-10 21:00:00 2.7 5 Sur 29 Este 0 -- -- 97
2020-01-10 20:00:00 3 7 Este 39 Este 0.8 -- -- 99
2020-01-10 19:00:00 3 6 Sur 19 Oeste 0.6 -- -- 100
2020-01-10 18:00:00 3.1 6 Sur 18 Sudoeste 0.2 -- -- 100
2020-01-10 17:00:00 3.4 5 Este 15 Sudoeste 0.6 -- -- 98
2020-01-10 16:00:00 3.9 8 Oeste 22 Noroeste 0.6 -- -- 98
2020-01-10 15:00:00 3.6 6 Sudoeste 23 Noroeste 0.6 -- -- 95
2020-01-10 14:00:00 3.2 6 Sudoeste 22 Este 1.8 -- -- 100
2020-01-10 13:00:00 3.1 6 Sur 23 Noroeste 2.6 -- -- 99
2020-01-10 12:00:00 3.2 6 Norte 24 Oeste 1.4 -- -- 96
2020-01-10 11:00:00 2.8 9 Noroeste 26 Norte 2.4 -- -- 97
2020-01-10 10:00:00 2.9 10 Norte 36 Norte 0.8 -- -- 95
2020-01-10 09:00:00 2.5 9 Noroeste 24 Norte 1.4 -- -- 96
2020-01-10 08:00:00 2.4 8 Nordeste 24 Norte 0.8 -- -- 96
2020-01-10 07:00:00 1.8 5 Nordeste 23 Nordeste 3.6 -- -- 97
2020-01-10 06:00:00 2.9 8 Noroeste 26 Oeste 0.4 -- -- 94
2020-01-10 05:00:00 3.1 11 Norte 27 Nordeste 0.2 -- -- 93
2020-01-10 04:00:00 2.5 4 Sudoeste 30 Norte 2.8 -- -- 96
2020-01-10 03:00:00 3.6 11 Nordeste 30 Nordeste 0.2 -- -- 91
2020-01-10 02:00:00 3.7 3 Sur 17 Nordeste 0.6 -- -- 96
2020-01-10 01:00:00 3.9 4 Noroeste 26 Nordeste 0 -- -- 92
2020-01-10 00:00:00 3.4 11 Nordeste 32 Norte 1.2 -- -- 92
2020-01-09 23:00:00 3.7 11 Nordeste 30 Nordeste 0.4 -- -- 91
2020-01-09 22:00:00 4.6 5 Nordeste 23 Nordeste 0.2 -- -- 95
2020-01-09 21:00:00 5.3 8 Nordeste 21 Nordeste 0.2 -- -- 98
2020-01-09 20:00:00 5.6 3 Norte 19 Noroeste 0 -- -- 97
2020-01-09 19:00:00 6.5 9 Norte 23 Norte 0 -- -- 86
2020-01-09 18:00:00 6.5 3 Oeste 11 Noroeste 0 -- -- 81
2020-01-09 17:00:00 8 5 Sudoeste 29 Sur 0 -- -- 75
2020-01-09 16:00:00 9.5 11 Sur 27 Sur 0 -- -- 68
2020-01-09 15:00:00 10.6 17 Sur 38 Sur 0 -- -- 62
2020-01-09 14:00:00 10.3 20 Sur 33 Sur 0 -- -- 62
2020-01-09 13:00:00 10.7 15 Sur 27 Sur 0 -- -- 60
2020-01-09 12:00:00 8.3 4 Sudeste 10 Sur 0 -- -- 67
2020-01-09 11:00:00 5.8 5 Sudoeste 14 Sudoeste 0 -- -- 78
2020-01-09 10:00:00 6.6 6 Sur 16 Sur 0 -- -- 70
2020-01-09 09:00:00 4.7 4 Este 12 Sudeste 0 -- -- 77
2020-01-09 08:00:00 4 0 Calma 6 Sudoeste 0 -- -- 84
2020-01-09 07:00:00 4.8 3 Sudoeste 13 Sudeste 0 -- -- 81
2020-01-09 06:00:00 5.4 2 Sudeste 11 Sudeste 0 -- -- 83
2020-01-09 05:00:00 5.1 5 Sudeste 12 Sudeste 0 -- -- 80
2020-01-09 04:00:00 4.7 2 Oeste 5 Noroeste 0 -- -- 78
2020-01-09 03:00:00 2.9 2 Oeste 4 Oeste 0 -- -- 87
2020-01-09 02:00:00 5.3 0 Calma 5 Este 0 -- -- 76
2020-01-09 01:00:00 5.7 3 Norte 6 Norte 0 -- -- 79
2020-01-09 00:00:00 4.8 2 Oeste 4 Noroeste 0 -- -- 87
2020-01-08 23:00:00 6 0 Calma 6 Este 0 -- -- 82
2020-01-08 22:00:00 5.3 0 Calma 4 Noroeste 0 -- -- 86
2020-01-08 21:00:00 4.5 0 Calma 4 Oeste 0 -- -- 93
2020-01-08 20:00:00 5.7 0 Calma 3 Oeste 0 -- -- 88
2020-01-08 19:00:00 6.9 0 Calma 4 Sudoeste 0 -- -- 84
2020-01-08 18:00:00 8.3 0 Calma 9 Sudoeste 0 -- -- 73
2020-01-08 17:00:00 11 4 Sudoeste 15 Sudoeste 0 -- -- 57
2020-01-08 16:00:00 12.8 8 Sudoeste 18 Sur 0 -- -- 49
2020-01-08 15:00:00 13.9 8 Sudoeste 19 Sudoeste 0 -- -- 59
2020-01-08 14:00:00 13.8 8 Sur 13 Sur 0 -- -- 62
2020-01-08 13:00:00 13.6 3 Sudeste 21 Norte 0 -- -- 62
2020-01-08 12:00:00 11.3 9 Nordeste 22 Norte 0 -- -- 69
2020-01-08 11:00:00 9.4 13 Nordeste 37 Norte 0 -- -- 76
2020-01-08 10:00:00 9.5 17 Norte 31 Norte 0 -- -- 76
2020-01-08 09:00:00 8.9 9 Norte 21 Norte 0 -- -- 78
2020-01-08 08:00:00 8 7 Noroeste 17 Noroeste 0 -- -- 82
2020-01-08 07:00:00 6.5 2 Sudoeste 22 Noroeste 0 -- -- 86
2020-01-08 06:00:00 8.1 8 Noroeste 24 Norte 0 -- -- 81
2020-01-08 05:00:00 8.4 8 Norte 35 Norte 0 -- -- 82
2020-01-08 04:00:00 7.8 18 Noroeste 35 Noroeste 0 -- -- 85
2020-01-08 03:00:00 7.7 8 Noroeste 28 Noroeste 0 -- -- 85
2020-01-08 02:00:00 7.6 10 Noroeste 23 Norte 0 -- -- 80
2020-01-08 01:00:00 7.7 7 Noroeste 25 Noroeste 0 -- -- 82
2020-01-08 00:00:00 7.7 10 Norte 27 Norte 0 -- -- 83
2020-01-07 23:00:00 7.7 11 Norte 27 Norte 0 -- -- 86
2020-01-07 22:00:00 7.2 16 Norte 30 Norte 0 -- -- 86
2020-01-07 21:00:00 7.6 15 Norte 26 Noroeste 0 -- -- 85
2020-01-07 20:00:00 6.7 7 Norte 31 Nordeste 0 -- -- 90
2020-01-07 19:00:00 5.6 21 Norte 33 Noroeste 0 -- -- 92
2020-01-07 18:00:00 8.1 16 Norte 28 Norte 0 -- -- 83
2020-01-07 17:00:00 8.3 18 Norte 28 Norte 0 -- -- 84
2020-01-07 16:00:00 9.2 15 Norte 28 Norte 0 -- -- 79
2020-01-07 15:00:00 10.2 15 Norte 31 Norte 0 -- -- 74
2020-01-07 14:00:00 10 18 Norte 29 Norte 0 -- -- 75
2020-01-07 13:00:00 13 6 Este 28 Norte 0 -- -- 64
2020-01-07 12:00:00 7.2 17 Norte 30 Norte 0 -- -- 80
2020-01-07 11:00:00 7 17 Norte 32 Norte 0 -- -- 77
2020-01-07 10:00:00 4.4 0 Calma 5 Sudoeste 0 -- -- 91
2020-01-07 09:00:00 1.6 0 Calma 30 Nordeste 0 -- -- 100
2020-01-07 08:00:00 2 5 Noroeste 29 Nordeste 0 -- -- 98
2020-01-07 07:00:00 2.6 8 Noroeste 27 Norte 0 -- -- 94
2020-01-07 06:00:00 3.2 9 Norte 34 Norte 0 -- -- 96
2020-01-07 05:00:00 3.2 9 Noroeste 34 Nordeste 0 -- -- 90
2020-01-07 04:00:00 1.2 3 Norte 5 Norte 0 -- -- 99
2020-01-07 03:00:00 2.1 2 Oeste 30 Nordeste 0 -- -- 97
2020-01-07 02:00:00 3.8 13 Norte 29 Norte 0 -- -- 93
2020-01-07 01:00:00 3.8 9 Norte 30 Norte 0 -- -- 93
2020-01-07 00:00:00 4 13 Norte 29 Nordeste 0 -- -- 91
2020-01-06 23:00:00 3.9 7 Norte 24 Norte 0 -- -- 93
2020-01-06 22:00:00 4.2 8 Noroeste 22 Norte 0 -- -- 91
2020-01-06 21:00:00 4 9 Noroeste 37 Norte 0 -- -- 93
2020-01-06 20:00:00 6.2 10 Norte 26 Nordeste 0 -- -- 63
2020-01-06 19:00:00 3.6 3 Norte 20 Nordeste 0 -- -- 93
2020-01-06 18:00:00 5.3 9 Nordeste 23 Norte 0 -- -- 88
2020-01-06 17:00:00 8.4 2 Sudoeste 8 Sur 0 -- -- 60
2020-01-06 16:00:00 11 4 Sur 12 Sur 0 -- -- 51
2020-01-06 15:00:00 11 4 Sudoeste 13 Sudoeste 0 -- -- 50
2020-01-06 14:00:00 10 4 Sur 14 Sur 0 -- -- 52
2020-01-06 13:00:00 8.1 7 Sur 13 Sur 0 -- -- 62
2020-01-06 12:00:00 6.7 5 Sur 10 Sudoeste 0 -- -- 72
2020-01-06 11:00:00 5.1 5 Sur 7 Sur 0 -- -- 79
2020-01-06 10:00:00 3.7 3 Sur 5 Sudoeste 0 -- -- 82